Wetterdaten: Woche 03.10.16 - 09.10.16 (KW40)
Datum Zeit Temp. I. Temp. A. Feuchte I. Feuchte A. Luftdruck Regen Wind Richtung Sonnenschein UV Solar Taupunkt Windchill Windben
03.10.2016 00:00 24,3 C 9,4 C 55 % 94 % 1017,8 hPa 0,0 l/m 2,1 km/h (1 Bft) SW 0,00 h 0,0 UV-I 0 W/m 8,6 C 9,4 C 5,2 km/h (1 Bft)
03.10.2016 01:00 24,2 C 9,0 C 56 % 92 % 1018,2 hPa 0,0 l/m 2,7 km/h (1 Bft) SW 0,00 h 0,0 UV-I 0 W/m 7,7 C 8,9 C 6,1 km/h (2 Bft)
03.10.2016 02:00 24,4 C 8,8 C 57 % 91 % 1018,2 hPa 0,0 l/m 3,9 km/h (1 Bft) SW 0,00 h 0,0 UV-I 0 W/m 7,5 C 8,7 C 8,8 km/h (2 Bft)
03.10.2016 03:00 24,4 C 8,7 C 57 % 92 % 1018,4 hPa 0,2 l/m 1,6 km/h (1 Bft) S 0,00 h 0,0 UV-I 0 W/m 7,5 C 8,7 C 4,6 km/h (1 Bft)
03.10.2016 04:00 24,5 C 8,7 C 58 % 94 % 1018,6 hPa 0,0 l/m 3,6 km/h (1 Bft) S-SW 0,00 h 0,0 UV-I 0 W/m 7,7 C 8,7 C 8,3 km/h (2 Bft)
03.10.2016 05:00 24,6 C 8,8 C 58 % 95 % 1019,0 hPa 0,2 l/m 4,3 km/h (1 Bft) SW 0,00 h 0,0 UV-I 0 W/m 8,1 C 8,6 C 8,8 km/h (2 Bft)
03.10.2016 06:00 24,6 C 9,0 C 58 % 95 % 1019,3 hPa 0,2 l/m 2,9 km/h (1 Bft) S 0,00 h 0,0 UV-I 0 W/m 8,2 C 8,9 C 6,3 km/h (2 Bft)
03.10.2016 07:00 24,6 C 9,1 C 58 % 96 % 1019,6 hPa 0,6 l/m 3,1 km/h (1 Bft) SW 0,00 h 0,0 UV-I 8 W/m 8,5 C 9,0 C 7,1 km/h (2 Bft)
03.10.2016 08:00 24,5 C 9,2 C 58 % 96 % 1020,0 hPa 0,2 l/m 4,5 km/h (1 Bft) W-SW 0,00 h 0,0 UV-I 26 W/m 8,6 C 9,0 C 9,6 km/h (2 Bft)
03.10.2016 09:00 24,4 C 9,3 C 58 % 96 % 1020,5 hPa 0,4 l/m 6,1 km/h (2 Bft) W-SW 0,00 h 0,0 UV-I 38 W/m 8,7 C 8,7 C 11,4 km/h (2 Bft)
03.10.2016 10:00 24,5 C 9,5 C 58 % 95 % 1021,0 hPa 0,2 l/m 4,1 km/h (1 Bft) W-SW 0,00 h 0,6 UV-I 53 W/m 8,8 C 9,4 C 9,8 km/h (2 Bft)
03.10.2016 11:00 24,4 C 10,1 C 58 % 94 % 1021,3 hPa 0,0 l/m 6,3 km/h (2 Bft) W-SW 0,28 h 1,0 UV-I 138 W/m 9,3 C 9,4 C 12,1 km/h (2 Bft)
03.10.2016 12:00 24,4 C 10,8 C 59 % 91 % 1021,5 hPa 0,0 l/m 4,5 km/h (1 Bft) W 0,98 h 1,5 UV-I 209 W/m 9,5 C 10,5 C 9,5 km/h (2 Bft)
03.10.2016 13:00 24,4 C 12,2 C 59 % 82 % 1021,8 hPa 0,0 l/m 5,9 km/h (2 Bft) W-SW 0,95 h 2,0 UV-I 353 W/m 9,3 C 11,4 C 11,8 km/h (2 Bft)
03.10.2016 14:00 24,4 C 12,4 C 58 % 76 % 1021,9 hPa 0,0 l/m 6,5 km/h (2 Bft) W-NW 1,00 h 1,6 UV-I 235 W/m 8,2 C 11,3 C 12,8 km/h (3 Bft)
03.10.2016 15:00 24,6 C 12,2 C 57 % 74 % 1022,1 hPa 0,0 l/m 4,1 km/h (1 Bft) W-NW 0,22 h 0,7 UV-I 105 W/m 7,8 C 11,8 C 9,4 km/h (2 Bft)
03.10.2016 16:00 24,4 C 11,1 C 55 % 85 % 1022,6 hPa 0,4 l/m 3,5 km/h (1 Bft) NW 0,00 h 0,6 UV-I 79 W/m 8,7 C 10,7 C 7,3 km/h (2 Bft)
03.10.2016 17:00 24,3 C 10,6 C 55 % 90 % 1022,9 hPa 0,4 l/m 0,9 km/h (0 Bft) W 0,00 h 0,5 UV-I 44 W/m 9,0 C 10,6 C 2,5 km/h (1 Bft)
03.10.2016 18:00 24,2 C 9,9 C 55 % 91 % 1023,5 hPa 0,0 l/m 1,9 km/h (1 Bft) W 0,00 h 0,0 UV-I 10 W/m 8,6 C 9,9 C 4,5 km/h (1 Bft)
03.10.2016 19:00 24,3 C 9,7 C 55 % 92 % 1024,1 hPa 0,0 l/m 3,2 km/h (1 Bft) NW 0,00 h 0,0 UV-I 0 W/m 8,5 C 9,7 C 7,4 km/h (2 Bft)
03.10.2016 20:00 24,5 C 9,5 C 56 % 93 % 1024,6 hPa 0,0 l/m 1,8 km/h (1 Bft) NW 0,00 h 0,0 UV-I 0 W/m 8,4 C 9,5 C 4,3 km/h (1 Bft)
03.10.2016 21:00 24,4 C 9,4 C 55 % 93 % 1025,0 hPa 0,6 l/m 1,4 km/h (1 Bft) W-NW 0,00 h 0,0 UV-I 0 W/m 8,3 C 9,4 C 3,7 km/h (1 Bft)
03.10.2016 22:00 24,6 C 9,3 C 55 % 94 % 1025,2 hPa 0,2 l/m 1,6 km/h (1 Bft) W-NW 0,00 h 0,0 UV-I 0 W/m 8,4 C 9,3 C 4,0 km/h (1 Bft)
03.10.2016 23:00 24,3 C 9,3 C 55 % 95 % 1025,4 hPa 0,2 l/m 1,5 km/h (1 Bft) NW 0,00 h 0,0 UV-I 0 W/m 8,5 C 9,3 C 4,7 km/h (1 Bft)
04.10.2016 00:00 24,1 C 9,3 C 55 % 95 % 1025,5 hPa 0,0 l/m 0,0 km/h (0 Bft) N 0,00 h 0,0 UV-I 0 W/m 8,5 C 9,3 C 0,0 km/h (0 Bft)
04.10.2016 01:00 23,9 C 9,2 C 56 % 95 % 1025,5 hPa 0,0 l/m 0,0 km/h (0 Bft) N 0,00 h 0,0 UV-I 0 W/m 8,4 C 9,2 C 0,0 km/h (0 Bft)
04.10.2016 02:00 23,9 C 8,8 C 56 % 95 % 1025,7 hPa 0,0 l/m 0,0 km/h (0 Bft) N 0,00 h 0,0 UV-I 0 W/m 8,0 C 8,8 C 0,0 km/h (0 Bft)
04.10.2016 03:00 23,8 C 8,5 C 56 % 95 % 1025,8 hPa 0,2 l/m 0,0 km/h (0 Bft) N 0,00 h 0,0 UV-I 0 W/m 7,7 C 8,5 C 0,0 km/h (0 Bft)
04.10.2016 04:00 23,9 C 8,3 C 57 % 95 % 1025,8 hPa 0,0 l/m 0,6 km/h (0 Bft) N-NW 0,00 h 0,0 UV-I 0 W/m 7,6 C 8,3 C 2,0 km/h (1 Bft)
04.10.2016 05:00 23,8 C 8,7 C 58 % 96 % 1025,8 hPa 0,0 l/m 1,2 km/h (1 Bft) N 0,00 h 0,0 UV-I 0 W/m 8,1 C 8,6 C 3,2 km/h (1 Bft)
04.10.2016 06:00 23,8 C 8,7 C 58 % 96 % 1026,0 hPa 0,2 l/m 0,6 km/h (0 Bft) NW 0,00 h 0,0 UV-I 0 W/m 8,1 C 8,7 C 2,2 km/h (1 Bft)
04.10.2016 07:00 23,7 C 8,8 C 58 % 96 % 1026,1 hPa 0,2 l/m 0,6 km/h (0 Bft) NW 0,00 h 0,0 UV-I 6 W/m 8,2 C 8,8 C 2,2 km/h (1 Bft)
04.10.2016 08:00 23,7 C 9,2 C 58 % 96 % 1026,1 hPa 0,0 l/m 0,8 km/h (0 Bft) W-NW 0,00 h 0,0 UV-I 9 W/m 8,6 C 9,2 C 2,7 km/h (1 Bft)
04.10.2016 09:00 23,9 C 9,7 C 58 % 97 % 1026,5 hPa 0,0 l/m 0,1 km/h (0 Bft) N-NO 0,00 h 0,0 UV-I 20 W/m 9,2 C 9,7 C 0,3 km/h (0 Bft)
04.10.2016 10:00 23,9 C 10,2 C 58 % 97 % 1027,0 hPa 0,0 l/m 1,8 km/h (1 Bft) N 0,00 h 0,6 UV-I 38 W/m 9,6 C 10,0 C 5,0 km/h (1 Bft)
04.10.2016 11:00 23,9 C 11,1 C 58 % 94 % 1027,4 hPa 0,2 l/m 4,9 km/h (1 Bft) N 0,45 h 1,0 UV-I 157 W/m 10,1 C 10,2 C 8,3 km/h (2 Bft)
04.10.2016 12:00 23,8 C 11,6 C 58 % 90 % 1027,7 hPa 0,0 l/m 10,2 km/h (2 Bft) N 0,38 h 1,1 UV-I 141 W/m 10,0 C 9,1 C 16,4 km/h (3 Bft)
04.10.2016 13:00 23,8 C 10,4 C 58 % 89 % 1028,6 hPa 0,0 l/m 9,9 km/h (2 Bft) N-NO 0,00 h 0,6 UV-I 58 W/m 8,7 C 8,0 C 16,2 km/h (3 Bft)
04.10.2016 14:00 24,0 C 10,9 C 58 % 86 % 1028,7 hPa 0,0 l/m 9,4 km/h (2 Bft) N-NO 0,47 h 1,3 UV-I 184 W/m 8,6 C 8,7 C 15,5 km/h (3 Bft)
04.10.2016 15:00 24,3 C 11,4 C 57 % 79 % 1029,0 hPa 0,0 l/m 12,6 km/h (3 Bft) N 0,38 h 1,1 UV-I 149 W/m 7,8 C 8,0 C 20,5 km/h (4 Bft)
04.10.2016 16:00 24,5 C 11,4 C 57 % 75 % 1029,4 hPa 0,0 l/m 10,4 km/h (2 Bft) N-NO 0,65 h 0,8 UV-I 229 W/m 7,1 C 9,0 C 16,8 km/h (3 Bft)
04.10.2016 17:00 24,3 C 11,1 C 57 % 74 % 1029,8 hPa 0,0 l/m 8,9 km/h (2 Bft) N-NO 0,30 h 0,5 UV-I 128 W/m 6,6 C 9,3 C 15,7 km/h (3 Bft)
04.10.2016 18:00 24,3 C 9,7 C 57 % 78 % 1030,3 hPa 0,0 l/m 4,1 km/h (1 Bft) N 0,00 h 0,0 UV-I 19 W/m 6,0 C 9,3 C 7,8 km/h (2 Bft)
04.10.2016 19:00 24,5 C 8,5 C 57 % 80 % 1030,9 hPa 0,0 l/m 1,8 km/h (1 Bft) N 0,00 h 0,0 UV-I 0 W/m 5,3 C 8,4 C 3,7 km/h (1 Bft)
04.10.2016 20:00 24,3 C 7,2 C 56 % 84 % 1031,1 hPa 0,0 l/m 0,1 km/h (0 Bft) N-NO 0,00 h 0,0 UV-I 0 W/m 4,7 C 7,2 C 0,3 km/h (0 Bft)
04.10.2016 21:00 24,3 C 6,1 C 58 % 87 % 1031,3 hPa 0,0 l/m 0,2 km/h (0 Bft) N-NO 0,00 h 0,0 UV-I 0 W/m 4,2 C 6,1 C 0,6 km/h (0 Bft)
04.10.2016 22:00 24,3 C 5,4 C 57 % 89 % 1031,5 hPa 0,0 l/m 0,9 km/h (0 Bft) N-NO 0,00 h 0,0 UV-I 0 W/m 3,7 C 5,4 C 1,4 km/h (1 Bft)
04.10.2016 23:00 24,1 C 4,3 C 57 % 90 % 1031,5 hPa 0,0 l/m 0,0 km/h (0 Bft) N 0,00 h 0,0 UV-I 0 W/m 2,8 C 4,3 C 0,1 km/h (0 Bft)
05.10.2016 00:00 23,9 C 3,3 C 57 % 91 % 1031,6 hPa 0,0 l/m 0,2 km/h (0 Bft) O 0,00 h 0,0 UV-I 0 W/m 2,0 C 3,3 C 0,6 km/h (0 Bft)
05.10.2016 01:00 23,8 C 2,6 C 57 % 92 % 1031,7 hPa 0,0 l/m 0,4 km/h (0 Bft) N-NW 0,00 h 0,0 UV-I 0 W/m 1,4 C 2,6 C 1,1 km/h (0 Bft)
05.10.2016 02:00 23,8 C 2,0 C 57 % 93 % 1031,4 hPa 0,0 l/m 0,6 km/h (0 Bft) N 0,00 h 0,0 UV-I 0 W/m 0,9 C 2,0 C 1,3 km/h (1 Bft)
05.10.2016 03:00 23,7 C 1,5 C 57 % 93 % 1031,1 hPa 0,0 l/m 0,3 km/h (0 Bft) O-NO 0,00 h 0,0 UV-I 0 W/m 0,5 C 1,5 C 0,7 km/h (0 Bft)
05.10.2016 04:00 23,8 C 1,3 C 58 % 94 % 1030,8 hPa 0,0 l/m 1,0 km/h (0 Bft) N 0,00 h 0,0 UV-I 0 W/m 0,4 C 1,3 C 1,8 km/h (1 Bft)
05.10.2016 05:00 23,7 C 1,2 C 58 % 94 % 1030,5 hPa 0,0 l/m 0,4 km/h (0 Bft) O-NO 0,00 h 0,0 UV-I 0 W/m 0,3 C 1,2 C 0,8 km/h (0 Bft)
05.10.2016 06:00 23,6 C 0,9 C 58 % 95 % 1030,5 hPa 0,0 l/m 0,3 km/h (0 Bft) SO 0,00 h 0,0 UV-I 0 W/m 0,1 C 0,9 C 0,8 km/h (0 Bft)
05.10.2016 07:00 23,5 C 0,4 C 58 % 94 % 1030,5 hPa 0,0 l/m 1,0 km/h (0 Bft) N 0,00 h 0,0 UV-I 11 W/m -0,4 C 0,4 C 2,0 km/h (1 Bft)
05.10.2016 08:00 23,6 C 1,3 C 58 % 95 % 1030,4 hPa 0,0 l/m 4,7 km/h (1 Bft) N 0,40 h 0,5 UV-I 100 W/m 0,6 C 1,1 C 8,1 km/h (2 Bft)
05.10.2016 09:00 23,7 C 6,1 C 58 % 86 % 1030,3 hPa 0,0 l/m 5,6 km/h (1 Bft) N 1,00 h 0,9 UV-I 355 W/m 3,9 C 5,1 C 10,9 km/h (2 Bft)
05.10.2016 10:00 23,8 C 7,9 C 57 % 76 % 1030,2 hPa 0,0 l/m 8,7 km/h (2 Bft) N 1,00 h 1,6 UV-I 458 W/m 3,9 C 6,0 C 14,4 km/h (3 Bft)
05.10.2016 11:00 23,4 C 7,8 C 52 % 78 % 1030,0 hPa 0,0 l/m 10,1 km/h (2 Bft) N 0,75 h 1,5 UV-I 256 W/m 4,2 C 5,2 C 14,8 km/h (3 Bft)
05.10.2016 12:00 23,4 C 8,7 C 52 % 75 % 1029,4 hPa 0,0 l/m 9,4 km/h (2 Bft) N 0,68 h 1,8 UV-I 362 W/m 4,5 C 6,5 C 15,1 km/h (3 Bft)
05.10.2016 13:00 23,3 C 8,8 C 49 % 72 % 1028,8 hPa 0,0 l/m 10,0 km/h (2 Bft) N 0,72 h 1,7 UV-I 316 W/m 4,0 C 6,2 C 15,9 km/h (3 Bft)
05.10.2016 14:00 23,3 C 9,8 C 49 % 66 % 1027,9 hPa 0,0 l/m 9,3 km/h (2 Bft) N 0,90 h 1,8 UV-I 406 W/m 3,8 C 7,8 C 14,7 km/h (3 Bft)
05.10.2016 15:00 23,4 C 8,9 C 48 % 73 % 1027,6 hPa 0,0 l/m 12,1 km/h (2 Bft) N 0,83 h 1,1 UV-I 245 W/m 4,3 C 5,4 C 18,3 km/h (3 Bft)
05.10.2016 16:00 23,8 C 8,9 C 48 % 75 % 1027,0 hPa 0,0 l/m 10,8 km/h (2 Bft) N 0,68 h 0,8 UV-I 224 W/m 4,7 C 6,1 C 16,5 km/h (3 Bft)
05.10.2016 17:00 23,6 C 8,1 C 49 % 79 % 1026,4 hPa 0,0 l/m 8,4 km/h (2 Bft) N-NW 0,00 h 0,0 UV-I 49 W/m 4,7 C 6,4 C 13,4 km/h (3 Bft)
05.10.2016 18:00 23,7 C 7,3 C 50 % 84 % 1026,0 hPa 0,2 l/m 7,0 km/h (2 Bft) NW 0,00 h 0,0 UV-I 11 W/m 4,8 C 6,3 C 11,8 km/h (2 Bft)
05.10.2016 19:00 23,9 C 6,6 C 51 % 88 % 1025,5 hPa 0,0 l/m 5,8 km/h (2 Bft) NW 0,00 h 0,0 UV-I 0 W/m 4,8 C 6,0 C 9,4 km/h (2 Bft)
05.10.2016 20:00 23,8 C 6,2 C 51 % 90 % 1025,0 hPa 0,4 l/m 5,9 km/h (2 Bft) NW 0,00 h 0,0 UV-I 0 W/m 4,8 C 5,5 C 9,3 km/h (2 Bft)
05.10.2016 21:00 24,0 C 6,1 C 51 % 92 % 1024,1 hPa 0,2 l/m 6,7 km/h (2 Bft) NW 0,00 h 0,0 UV-I 0 W/m 4,8 C 5,3 C 9,8 km/h (2 Bft)
05.10.2016 22:00 24,0 C 6,0 C 51 % 93 % 1023,5 hPa 0,0 l/m 4,1 km/h (1 Bft) W-NW 0,00 h 0,0 UV-I 0 W/m 4,9 C 5,8 C 6,3 km/h (2 Bft)
05.10.2016 23:00 23,7 C 5,9 C 50 % 93 % 1022,8 hPa 0,0 l/m 1,6 km/h (1 Bft) W-NW 0,00 h 0,0 UV-I 0 W/m 4,9 C 5,9 C 3,8 km/h (1 Bft)
06.10.2016 00:00 23,5 C 6,0 C 51 % 94 % 1021,7 hPa 0,2 l/m 2,6 km/h (1 Bft) W-NW 0,00 h 0,0 UV-I 0 W/m 5,0 C 5,9 C 4,8 km/h (1 Bft)
06.10.2016 01:00 23,4 C 6,2 C 51 % 94 % 1020,9 hPa 0,6 l/m 6,1 km/h (2 Bft) W-NW 0,00 h 0,0 UV-I 0 W/m 5,4 C 5,8 C 10,0 km/h (2 Bft)
06.10.2016 02:00 23,3 C 6,3 C 52 % 95 % 1020,2 hPa 1,0 l/m 6,1 km/h (2 Bft) NW 0,00 h 0,0 UV-I 0 W/m 5,6 C 5,8 C 10,1 km/h (2 Bft)
06.10.2016 03:00 23,3 C 6,3 C 52 % 95 % 1019,6 hPa 0,8 l/m 6,9 km/h (2 Bft) NW 0,00 h 0,0 UV-I 0 W/m 5,6 C 5,4 C 11,5 km/h (2 Bft)
06.10.2016 04:00 23,3 C 6,2 C 53 % 95 % 1019,1 hPa 0,6 l/m 6,1 km/h (2 Bft) NW 0,00 h 0,0 UV-I 0 W/m 5,5 C 5,7 C 9,8 km/h (2 Bft)
06.10.2016 05:00 23,3 C 6,2 C 53 % 95 % 1018,6 hPa 0,2 l/m 5,7 km/h (1 Bft) NW 0,00 h 0,0 UV-I 0 W/m 5,5 C 5,6 C 10,7 km/h (2 Bft)
06.10.2016 06:00 23,2 C 6,2 C 53 % 95 % 1018,3 hPa 0,0 l/m 4,9 km/h (1 Bft) NW 0,00 h 0,0 UV-I 0 W/m 5,5 C 5,9 C 8,7 km/h (2 Bft)
06.10.2016 07:00 23,2 C 6,2 C 54 % 95 % 1018,2 hPa 0,0 l/m 3,7 km/h (1 Bft) NW 0,00 h 0,0 UV-I 5 W/m 5,5 C 6,1 C 7,0 km/h (2 Bft)
06.10.2016 08:00 23,2 C 6,4 C 54 % 95 % 1018,0 hPa 0,2 l/m 3,8 km/h (1 Bft) NW 0,00 h 0,0 UV-I 15 W/m 5,7 C 6,4 C 7,8 km/h (2 Bft)
06.10.2016 09:00 23,3 C 6,8 C 54 % 95 % 1017,9 hPa 0,0 l/m 3,1 km/h (1 Bft) N-NW 0,00 h 0,5 UV-I 66 W/m 6,1 C 6,7 C 6,8 km/h (2 Bft)
06.10.2016 10:00 23,3 C 7,5 C 54 % 95 % 1017,8 hPa 0,2 l/m 4,5 km/h (1 Bft) NW 0,03 h 0,6 UV-I 92 W/m 6,7 C 7,2 C 9,1 km/h (2 Bft)
06.10.2016 11:00 23,2 C 7,8 C 55 % 95 % 1017,9 hPa 0,0 l/m 4,5 km/h (1 Bft) N-NW 0,00 h 0,5 UV-I 68 W/m 7,0 C 7,5 C 8,5 km/h (2 Bft)
06.10.2016 12:00 23,2 C 8,1 C 55 % 94 % 1017,9 hPa 0,0 l/m 4,6 km/h (1 Bft) N-NW 0,12 h 0,8 UV-I 109 W/m 7,3 C 7,8 C 8,9 km/h (2 Bft)
06.10.2016 13:00 23,3 C 9,0 C 55 % 94 % 1017,6 hPa 0,0 l/m 5,4 km/h (1 Bft) N 0,62 h 1,2 UV-I 158 W/m 8,0 C 8,4 C 8,9 km/h (2 Bft)
06.10.2016 14:00 23,4 C 9,3 C 55 % 92 % 1017,3 hPa 0,0 l/m 4,9 km/h (1 Bft) N 0,25 h 0,9 UV-I 122 W/m 8,1 C 8,8 C 8,3 km/h (2 Bft)
06.10.2016 15:00 23,5 C 9,6 C 55 % 91 % 1017,1 hPa 0,0 l/m 4,9 km/h (1 Bft) N 0,00 h 0,7 UV-I 82 W/m 8,1 C 9,1 C 8,7 km/h (2 Bft)
06.10.2016 16:00 23,7 C 9,3 C 55 % 91 % 1016,9 hPa 0,0 l/m 2,8 km/h (1 Bft) N 0,00 h 0,0 UV-I 47 W/m 7,9 C 9,0 C 5,0 km/h (1 Bft)
06.10.2016 17:00 23,6 C 9,0 C 55 % 91 % 1016,9 hPa 0,0 l/m 4,0 km/h (1 Bft) N 0,00 h 0,0 UV-I 13 W/m 7,6 C 8,4 C 6,9 km/h (2 Bft)
06.10.2016 18:00 23,6 C 8,7 C 55 % 91 % 1017,0 hPa 0,0 l/m 0,9 km/h (0 Bft) N-NW 0,00 h 0,0 UV-I 0 W/m 7,3 C 8,7 C 2,9 km/h (1 Bft)
06.10.2016 19:00 23,7 C 8,5 C 56 % 92 % 1017,2 hPa 0,0 l/m 3,1 km/h (1 Bft) N-NW 0,00 h 0,0 UV-I 0 W/m 7,3 C 8,4 C 6,1 km/h (2 Bft)
06.10.2016 20:00 23,8 C 8,3 C 56 % 93 % 1017,2 hPa 0,4 l/m 1,7 km/h (1 Bft) N 0,00 h 0,0 UV-I 0 W/m 7,2 C 8,3 C 3,7 km/h (1 Bft)
06.10.2016 21:00 23,8 C 8,1 C 56 % 94 % 1017,2 hPa 0,0 l/m 0,3 km/h (0 Bft) NW 0,00 h 0,0 UV-I 0 W/m 7,2 C 8,1 C 0,8 km/h (0 Bft)
06.10.2016 22:00 24,0 C 8,0 C 56 % 94 % 1017,2 hPa 0,0 l/m 0,0 km/h (0 Bft) N 0,00 h 0,0 UV-I 0 W/m 7,1 C 8,0 C 0,2 km/h (0 Bft)
06.10.2016 23:00 23,9 C 7,9 C 56 % 95 % 1017,2 hPa 0,0 l/m 0,0 km/h (0 Bft) N 0,00 h 0,0 UV-I 0 W/m 7,1 C 7,9 C 0,1 km/h (0 Bft)
07.10.2016 00:00 23,7 C 7,7 C 56 % 95 % 1017,2 hPa 0,0 l/m 0,6 km/h (0 Bft) N 0,00 h 0,0 UV-I 0 W/m 7,0 C 7,7 C 2,0 km/h (1 Bft)
07.10.2016 01:00 23,6 C 7,6 C 56 % 95 % 1017,0 hPa 0,0 l/m 0,1 km/h (0 Bft) N-NW 0,00 h 0,0 UV-I 0 W/m 6,9 C 7,6 C 0,2 km/h (0 Bft)
07.10.2016 02:00 23,7 C 7,5 C 57 % 95 % 1017,0 hPa 0,0 l/m 2,5 km/h (1 Bft) N 0,00 h 0,0 UV-I 0 W/m 6,8 C 7,5 C 5,1 km/h (1 Bft)
07.10.2016 03:00 23,8 C 7,4 C 57 % 96 % 1016,7 hPa 0,2 l/m 1,8 km/h (1 Bft) N 0,00 h 0,0 UV-I 0 W/m 6,8 C 7,4 C 4,5 km/h (1 Bft)
07.10.2016 04:00 23,9 C 7,3 C 57 % 95 % 1016,8 hPa 0,2 l/m 1,4 km/h (1 Bft) N 0,00 h 0,0 UV-I 0 W/m 6,6 C 7,3 C 3,2 km/h (1 Bft)
07.10.2016 05:00 23,6 C 7,0 C 57 % 95 % 1016,8 hPa 0,0 l/m 0,2 km/h (0 Bft) N-NO 0,00 h 0,0 UV-I 0 W/m 6,3 C 7,0 C 0,9 km/h (0 Bft)
07.10.2016 06:00 23,5 C 6,9 C 58 % 96 % 1017,1 hPa 0,0 l/m 0,7 km/h (0 Bft) O-NO 0,00 h 0,0 UV-I 0 W/m 6,2 C 6,9 C 1,7 km/h (1 Bft)
07.10.2016 07:00 23,4 C 6,4 C 58 % 95 % 1017,3 hPa 0,0 l/m 0,9 km/h (0 Bft) O-NO 0,00 h 0,0 UV-I 5 W/m 5,6 C 6,4 C 2,9 km/h (1 Bft)
07.10.2016 08:00 23,4 C 6,3 C 58 % 95 % 1017,6 hPa 0,0 l/m 1,1 km/h (1 Bft) O-NO 0,00 h 0,0 UV-I 24 W/m 5,5 C 6,3 C 3,3 km/h (1 Bft)
07.10.2016 09:00 23,6 C 6,7 C 58 % 94 % 1017,8 hPa 0,0 l/m 0,1 km/h (0 Bft) O 0,00 h 0,5 UV-I 52 W/m 5,8 C 6,7 C 0,3 km/h (0 Bft)
07.10.2016 10:00 23,5 C 7,6 C 58 % 90 % 1018,1 hPa 0,0 l/m 0,6 km/h (0 Bft) N-NO 0,25 h 0,8 UV-I 132 W/m 6,0 C 7,5 C 1,2 km/h (1 Bft)
07.10.2016 11:00 23,4 C 7,9 C 56 % 88 % 1018,4 hPa 0,0 l/m 3,1 km/h (1 Bft) N-NO 0,13 h 0,7 UV-I 99 W/m 5,9 C 7,7 C 6,1 km/h (2 Bft)
07.10.2016 12:00 23,8 C 8,6 C 56 % 86 % 1018,4 hPa 0,0 l/m 4,5 km/h (1 Bft) N-NO 0,67 h 1,3 UV-I 180 W/m 6,4 C 8,2 C 8,3 km/h (2 Bft)
07.10.2016 13:00 24,1 C 8,3 C 56 % 87 % 1018,6 hPa 0,0 l/m 3,8 km/h (1 Bft) N-NO 0,00 h 0,8 UV-I 104 W/m 6,3 C 8,1 C 7,5 km/h (2 Bft)
07.10.2016 14:00 24,2 C 8,7 C 55 % 86 % 1018,3 hPa 0,0 l/m 2,5 km/h (1 Bft) N-NO 0,60 h 1,0 UV-I 153 W/m 6,5 C 8,7 C 5,1 km/h (1 Bft)
07.10.2016 15:00 24,2 C 9,0 C 54 % 83 % 1018,3 hPa 0,0 l/m 3,2 km/h (1 Bft) N 0,00 h 0,6 UV-I 92 W/m 6,3 C 8,8 C 5,9 km/h (2 Bft)
07.10.2016 16:00 24,0 C 8,8 C 51 % 84 % 1018,3 hPa 0,0 l/m 4,3 km/h (1 Bft) N 0,00 h 0,5 UV-I 46 W/m 6,3 C 8,6 C 8,1 km/h (2 Bft)
07.10.2016 17:00 23,8 C 8,7 C 51 % 85 % 1018,3 hPa 0,0 l/m 0,1 km/h (0 Bft) N 0,00 h 0,0 UV-I 17 W/m 6,3 C 8,7 C 0,4 km/h (0 Bft)
07.10.2016 18:00 23,8 C 8,4 C 52 % 86 % 1018,8 hPa 0,0 l/m 0,5 km/h (0 Bft) N 0,00 h 0,0 UV-I 9 W/m 6,3 C 8,4 C 1,3 km/h (1 Bft)
07.10.2016 19:00 24,2 C 8,0 C 53 % 88 % 1018,8 hPa 0,0 l/m 0,0 km/h (0 Bft) N 0,00 h 0,0 UV-I 0 W/m 6,2 C 8,0 C 0,0 km/h (0 Bft)
07.10.2016 20:00 24,3 C 7,7 C 54 % 90 % 1018,9 hPa 0,0 l/m 0,0 km/h (0 Bft) N 0,00 h 0,0 UV-I 0 W/m 6,2 C 7,7 C 0,0 km/h (0 Bft)
07.10.2016 21:00 24,3 C 7,5 C 54 % 91 % 1019,0 hPa 0,0 l/m 0,0 km/h (0 Bft) N 0,00 h 0,0 UV-I 0 W/m 6,2 C 7,5 C 0,0 km/h (0 Bft)
07.10.2016 22:00 24,6 C 7,3 C 53 % 92 % 1019,2 hPa 0,0 l/m 0,0 km/h (0 Bft) N 0,00 h 0,0 UV-I 0 W/m 6,1 C 7,3 C 0,0 km/h (0 Bft)
07.10.2016 23:00 24,2 C 7,0 C 54 % 93 % 1019,0 hPa 0,0 l/m 0,2 km/h (0 Bft) N 0,00 h 0,0 UV-I 0 W/m 5,9 C 7,0 C 0,4 km/h (0 Bft)
08.10.2016 00:00 24,0 C 6,7 C 54 % 93 % 1018,8 hPa 0,0 l/m 0,7 km/h (0 Bft) N 0,00 h 0,0 UV-I 0 W/m 5,6 C 6,7 C 1,1 km/h (1 Bft)
08.10.2016 01:00 23,8 C 6,4 C 55 % 93 % 1018,9 hPa 0,0 l/m 0,0 km/h (0 Bft) N 0,00 h 0,0 UV-I 0 W/m 5,3 C 6,4 C 0,0 km/h (0 Bft)
08.10.2016 02:00 23,8 C 6,3 C 55 % 94 % 1018,8 hPa 0,0 l/m 0,0 km/h (0 Bft) N 0,00 h 0,0 UV-I 0 W/m 5,4 C 6,3 C 0,0 km/h (0 Bft)
08.10.2016 03:00 23,8 C 6,2 C 55 % 94 % 1018,6 hPa 0,0 l/m 0,0 km/h (0 Bft) N 0,00 h 0,0 UV-I 0 W/m 5,3 C 6,2 C 0,0 km/h (0 Bft)
08.10.2016 04:00 23,7 C 6,1 C 55 % 95 % 1018,3 hPa 0,0 l/m 0,0 km/h (0 Bft) N 0,00 h 0,0 UV-I 0 W/m 5,3 C 6,1 C 0,0 km/h (0 Bft)
08.10.2016 05:00 23,7 C 6,1 C 56 % 95 % 1018,3 hPa 0,0 l/m 0,0 km/h (0 Bft) N 0,00 h 0,0 UV-I 0 W/m 5,4 C 6,1 C 0,1 km/h (0 Bft)
08.10.2016 06:00 23,6 C 6,4 C 56 % 96 % 1018,4 hPa 0,2 l/m 1,7 km/h (1 Bft) N 0,00 h 0,0 UV-I 0 W/m 5,7 C 6,3 C 3,5 km/h (1 Bft)
08.10.2016 07:00 23,5 C 5,9 C 56 % 95 % 1018,8 hPa 0,0 l/m 4,8 km/h (1 Bft) N 0,00 h 0,0 UV-I 10 W/m 5,1 C 5,5 C 8,1 km/h (2 Bft)
08.10.2016 08:00 23,7 C 5,2 C 56 % 94 % 1019,2 hPa 0,0 l/m 1,3 km/h (1 Bft) N-NO 0,23 h 0,5 UV-I 79 W/m 4,4 C 5,1 C 2,6 km/h (1 Bft)
08.10.2016 09:00 23,7 C 7,1 C 56 % 89 % 1019,5 hPa 0,0 l/m 2,4 km/h (1 Bft) N 0,93 h 0,7 UV-I 266 W/m 5,4 C 6,9 C 4,7 km/h (1 Bft)
08.10.2016 10:00 23,7 C 7,7 C 54 % 84 % 1019,8 hPa 0,0 l/m 4,2 km/h (1 Bft) N-NW 0,50 h 1,2 UV-I 220 W/m 5,2 C 7,4 C 7,9 km/h (2 Bft)
08.10.2016 11:00 23,7 C 8,3 C 53 % 82 % 1020,1 hPa 0,0 l/m 5,7 km/h (1 Bft) N-NW 0,88 h 1,5 UV-I 245 W/m 5,3 C 7,7 C 9,5 km/h (2 Bft)
08.10.2016 12:00 23,6 C 7,9 C 52 % 85 % 1020,5 hPa 0,2 l/m 5,6 km/h (1 Bft) N-NW 0,33 h 1,1 UV-I 165 W/m 5,5 C 7,0 C 10,1 km/h (2 Bft)
08.10.2016 13:00 23,7 C 8,1 C 53 % 88 % 1020,7 hPa 0,0 l/m 1,0 km/h (0 Bft) N-NW 0,63 h 1,3 UV-I 220 W/m 6,3 C 8,1 C 2,0 km/h (1 Bft)
08.10.2016 14:00 23,7 C 9,0 C 53 % 82 % 1020,6 hPa 0,0 l/m 5,3 km/h (1 Bft) N 0,63 h 1,1 UV-I 183 W/m 6,1 C 8,5 C 9,1 km/h (2 Bft)
08.10.2016 15:00 23,6 C 9,2 C 53 % 80 % 1020,6 hPa 0,0 l/m 7,9 km/h (2 Bft) N 0,62 h 1,0 UV-I 184 W/m 5,9 C 7,6 C 13,3 km/h (3 Bft)
08.10.2016 16:00 23,7 C 8,5 C 54 % 83 % 1021,0 hPa 0,0 l/m 7,2 km/h (2 Bft) N 0,00 h 0,6 UV-I 80 W/m 5,8 C 7,2 C 12,3 km/h (3 Bft)
08.10.2016 17:00 23,8 C 8,1 C 54 % 83 % 1021,3 hPa 0,0 l/m 5,7 km/h (1 Bft) N-NW 0,00 h 0,0 UV-I 57 W/m 5,5 C 7,5 C 10,0 km/h (2 Bft)
08.10.2016 18:00 23,9 C 7,9 C 54 % 85 % 1021,6 hPa 0,0 l/m 1,9 km/h (1 Bft) N-NW 0,00 h 0,0 UV-I 14 W/m 5,5 C 7,9 C 4,1 km/h (1 Bft)
08.10.2016 19:00 24,0 C 7,5 C 55 % 87 % 1022,0 hPa 0,0 l/m 2,0 km/h (1 Bft) N-NW 0,00 h 0,0 UV-I 0 W/m 5,5 C 7,5 C 4,0 km/h (1 Bft)
08.10.2016 20:00 24,2 C 7,0 C 55 % 89 % 1022,2 hPa 0,0 l/m 0,6 km/h (0 Bft) N 0,00 h 0,0 UV-I 0 W/m 5,2 C 7,0 C 1,2 km/h (1 Bft)
08.10.2016 21:00 24,0 C 6,4 C 55 % 90 % 1022,4 hPa 0,0 l/m 0,0 km/h (0 Bft) N 0,00 h 0,0 UV-I 0 W/m 4,9 C 6,4 C 0,0 km/h (0 Bft)
08.10.2016 22:00 24,1 C 6,0 C 55 % 91 % 1022,6 hPa 0,0 l/m 0,0 km/h (0 Bft) N 0,00 h 0,0 UV-I 0 W/m 4,7 C 6,0 C 0,0 km/h (0 Bft)
08.10.2016 23:00 23,8 C 6,1 C 54 % 93 % 1022,6 hPa 0,0 l/m 0,5 km/h (0 Bft) N 0,00 h 0,0 UV-I 0 W/m 5,0 C 6,1 C 1,3 km/h (1 Bft)
09.10.2016 00:00 23,7 C 6,1 C 55 % 93 % 1022,5 hPa 0,0 l/m 0,2 km/h (0 Bft) N 0,00 h 0,0 UV-I 0 W/m 5,1 C 6,1 C 0,5 km/h (0 Bft)
09.10.2016 01:00 23,5 C 6,0 C 55 % 94 % 1022,4 hPa 0,0 l/m 0,2 km/h (0 Bft) N 0,00 h 0,0 UV-I 0 W/m 5,1 C 6,0 C 0,7 km/h (0 Bft)
09.10.2016 02:00 23,4 C 6,1 C 55 % 94 % 1022,5 hPa 0,0 l/m 0,1 km/h (0 Bft) N 0,00 h 0,0 UV-I 0 W/m 5,2 C 6,1 C 0,4 km/h (0 Bft)
09.10.2016 03:00 23,5 C 6,2 C 56 % 94 % 1022,3 hPa 0,0 l/m 0,6 km/h (0 Bft) N-NW 0,00 h 0,0 UV-I 0 W/m 5,3 C 6,2 C 1,7 km/h (1 Bft)
09.10.2016 04:00 23,6 C 6,3 C 56 % 95 % 1022,2 hPa 0,4 l/m 2,6 km/h (1 Bft) NW 0,00 h 0,0 UV-I 0 W/m 5,5 C 6,3 C 4,5 km/h (1 Bft)
09.10.2016 05:00 23,8 C 6,3 C 57 % 95 % 1022,1 hPa 0,2 l/m 3,0 km/h (1 Bft) NW 0,00 h 0,0 UV-I 0 W/m 5,5 C 6,3 C 5,8 km/h (2 Bft)
09.10.2016 06:00 24,0 C 6,2 C 56 % 95 % 1022,1 hPa 0,0 l/m 1,8 km/h (1 Bft) N-NW 0,00 h 0,0 UV-I 0 W/m 5,5 C 6,2 C 3,2 km/h (1 Bft)
09.10.2016 07:00 23,9 C 6,2 C 57 % 95 % 1022,2 hPa 0,0 l/m 0,7 km/h (0 Bft) NW 0,00 h 0,0 UV-I 6 W/m 5,5 C 6,2 C 1,7 km/h (1 Bft)
09.10.2016 08:00 23,7 C 6,5 C 55 % 96 % 1022,5 hPa 0,0 l/m 1,2 km/h (1 Bft) NW 0,00 h 0,0 UV-I 67 W/m 5,8 C 6,5 C 2,1 km/h (1 Bft)
09.10.2016 09:00 23,7 C 7,1 C 55 % 94 % 1022,8 hPa 0,0 l/m 1,7 km/h (1 Bft) N-NW 0,05 h 0,5 UV-I 78 W/m 6,2 C 7,1 C 3,9 km/h (1 Bft)
09.10.2016 10:00 23,7 C 7,6 C 55 % 91 % 1023,0 hPa 0,0 l/m 3,1 km/h (1 Bft) N-NW 0,07 h 0,8 UV-I 131 W/m 6,3 C 7,5 C 6,8 km/h (2 Bft)
09.10.2016 11:00 23,6 C 8,2 C 55 % 87 % 1023,2 hPa 0,2 l/m 4,5 km/h (1 Bft) N 0,58 h 1,0 UV-I 165 W/m 6,1 C 7,8 C 7,5 km/h (2 Bft)
09.10.2016 12:00 23,6 C 8,5 C 56 % 85 % 1023,3 hPa 0,0 l/m 5,7 km/h (1 Bft) N 0,87 h 1,4 UV-I 207 W/m 6,1 C 7,8 C 9,7 km/h (2 Bft)
09.10.2016 13:00 23,5 C 10,1 C 55 % 77 % 1023,0 hPa 0,0 l/m 4,0 km/h (1 Bft) N-NO 1,00 h 2,4 UV-I 494 W/m 6,3 C 9,6 C 7,5 km/h (2 Bft)
09.10.2016 14:00 23,5 C 9,9 C 55 % 76 % 1023,0 hPa 0,0 l/m 7,4 km/h (2 Bft) N-NW 0,80 h 1,4 UV-I 222 W/m 5,8 C 7,9 C 11,8 km/h (2 Bft)
09.10.2016 15:00 23,7 C 8,9 C 55 % 78 % 1023,1 hPa 0,0 l/m 5,9 km/h (2 Bft) N 0,52 h 0,9 UV-I 164 W/m 5,4 C 8,1 C 9,6 km/h (2 Bft)
09.10.2016 16:00 23,7 C 9,4 C 53 % 75 % 1022,9 hPa 0,0 l/m 3,2 km/h (1 Bft) N-NO 0,70 h 0,8 UV-I 211 W/m 5,1 C 9,2 C 5,7 km/h (1 Bft)
09.10.2016 17:00 23,6 C 8,9 C 52 % 75 % 1023,0 hPa 0,0 l/m 0,8 km/h (0 Bft) N-NO 0,20 h 0,5 UV-I 81 W/m 4,7 C 8,9 C 2,3 km/h (1 Bft)
09.10.2016 18:00 23,5 C 7,9 C 52 % 80 % 1023,3 hPa 0,0 l/m 0,0 km/h (0 Bft) N 0,00 h 0,0 UV-I 14 W/m 4,6 C 7,9 C 0,0 km/h (0 Bft)
09.10.2016 19:00 23,7 C 6,7 C 52 % 82 % 1023,7 hPa 0,0 l/m 0,0 km/h (0 Bft) N 0,00 h 0,0 UV-I 0 W/m 3,9 C 6,7 C 0,0 km/h (0 Bft)
09.10.2016 20:00 23,7 C 5,2 C 52 % 86 % 1024,0 hPa 0,0 l/m 0,0 km/h (0 Bft) N 0,00 h 0,0 UV-I 0 W/m 2,9 C 5,2 C 0,0 km/h (0 Bft)
09.10.2016 21:00 23,5 C 3,7 C 52 % 88 % 1024,4 hPa 0,0 l/m 0,0 km/h (0 Bft) N 0,00 h 0,0 UV-I 0 W/m 2,0 C 3,7 C 0,0 km/h (0 Bft)
09.10.2016 22:00 23,7 C 2,6 C 51 % 90 % 1024,8 hPa 0,0 l/m 0,0 km/h (0 Bft) N 0,00 h 0,0 UV-I 0 W/m 1,1 C 2,6 C 0,0 km/h (0 Bft)
09.10.2016 23:00 23,4 C 1,7 C 51 % 91 % 1025,0 hPa 0,0 l/m 0,0 km/h (0 Bft) N 0,00 h 0,0 UV-I 0 W/m 0,4 C 1,7 C 0,0 km/h (0 Bft)
Min-Datum _ 05.10.16 05.10.16 05.10.16 05.10.16 07.10.16 - 03.10.16 - - - - 05.10.16 05.10.16 03.10.16
_ Min-Zeit 13:57 07:44 13:54 14:40 03:33 - 00:00 - - - - 07:44 08:06 00:00
Minimum _ 23,1 C 0,2 C 44 % 63 % 1016,6 hPa - 0,0 km/h (0 Bft) - - - - -0,6 C -1,4 C 0,0 km/h (0 Bft)
Max-Datum _ 03.10.16 03.10.16 04.10.16 04.10.16 05.10.16 06.10.16 04.10.16 - 03.10.16 03.10.16 03.10.16 04.10.16 03.10.16 04.10.16
_ Max-Zeit 15:41 13:38 21:21 08:38 01:14 02:02 15:43 - 12:43 13:32 13:37 12:06 13:40 16:17
Maximum _ 24,8 C 13,8 C 60 % 97 % 1031,8 hPa 1,0 l/m 22,5 km/h
N (4 Bft)
- 0,03 h 3,3 UV-I 888 W/m 10,6 C 13,8 C 33,8 km/h
N (5 Bft)
Durchschnitt _ 23,8 C 7,6 C 55 % 90 % 1022,5 hPa #11,2 l/m 3,1 km/h (1 Bft) N #25:15 h 1,0 UV-I 126 W/m 6,0 C 7,2 C 5,6 km/h (1 Bft)